VOCB/CJB METAR and TAF weather

Enter ICAO airport designator
Station Type Date Time Source
VOCB METAR 2021/09/27 07:30 UTC NOAA

VOCB 270730Z 22018KT 6000 FEW008 SCT012 28/21 Q1007 NOSIG


Station Type Date Time Source
VOCB Decoded METAR 2021/09/27 07:30 UTC NOAA

Coimbatore / Peelamedu, India (VOCB) 11-02N 077-03E 399M
Sep 27, 2021 - 03:30 AM EDT / 2021.09.27 0730 UTC
Wind: from the SW (220 degrees) at 21 MPH (18 KT):0
Visibility: 3 mile(s):0
Sky conditions: partly cloudy
Temperature: 82 F (28 C)
Dew Point: 69 F (21 C)
Relative Humidity: 65%
Pressure (altimeter): 29.74 in. Hg (1007 hPa)
ob: VOCB 270730Z 22018KT 6000 FEW008 SCT012 28/21 Q1007 NOSIG
cycle: 7

Station Type Date Time Source
VOCB TAF 2021/09/27 06:00 UTC NOAA

TAF VOCB 270500Z 2706/2812 23015KT 6000 SCT015 SCT080
TEMPO 2709/2715 SCT015 FEW020TCU/CB BKN080
BECMG 2718/2719 5000 BR
BECMG 2803/2804 6000

Example: see airport list